createdAt,value
2023-07-19T00:02:03.734Z,2.78
2023-07-19T00:04:32.399Z,3.17
2023-07-19T00:07:02.344Z,3.08
2023-07-19T00:09:30.996Z,2.85
2023-07-19T00:11:59.569Z,3.13
2023-07-19T00:14:28.144Z,3.20
2023-07-19T00:16:56.802Z,2.78
2023-07-19T00:19:25.772Z,2.65
2023-07-19T00:21:54.291Z,2.92
2023-07-19T00:24:24.237Z,2.80
2023-07-19T00:26:52.783Z,2.78
2023-07-19T00:29:21.311Z,2.90
2023-07-19T00:31:50.152Z,2.90
2023-07-19T00:34:18.905Z,2.72
2023-07-19T00:36:47.528Z,2.85
2023-07-19T00:39:16.102Z,2.85
2023-07-19T00:41:46.058Z,2.95
2023-07-19T00:44:14.581Z,2.60
2023-07-19T00:46:43.297Z,3.38
2023-07-19T00:49:12.694Z,2.97
2023-07-19T00:51:41.664Z,2.67
2023-07-19T00:54:11.530Z,2.95
2023-07-19T00:56:43.126Z,2.55
2023-07-19T00:59:15.288Z,3.40
2023-07-19T01:01:45.484Z,3.00
2023-07-19T01:04:14.565Z,2.67
2023-07-19T01:06:44.106Z,3.03
2023-07-19T01:09:13.604Z,2.70
2023-07-19T01:11:42.271Z,2.97
2023-07-19T01:14:10.826Z,2.63
2023-07-19T01:16:40.738Z,2.80
2023-07-19T01:19:11.055Z,2.60
2023-07-19T01:21:42.600Z,4.03
2023-07-19T01:24:12.550Z,3.40
2023-07-19T01:26:41.297Z,3.33
2023-07-19T01:29:09.898Z,3.40
2023-07-19T01:31:38.546Z,3.00
2023-07-19T01:34:08.991Z,3.05
2023-07-19T01:36:39.146Z,2.70
2023-07-19T01:39:07.745Z,3.08
2023-07-19T01:41:37.798Z,2.75
2023-07-19T01:44:09.084Z,2.97
2023-07-19T01:46:39.697Z,2.90
2023-07-19T01:49:08.235Z,2.88
2023-07-19T01:51:36.902Z,3.13
2023-07-19T01:54:05.656Z,2.58
2023-07-19T01:56:34.180Z,2.90
2023-07-19T01:59:04.130Z,2.72
2023-07-19T02:01:34.251Z,2.70
2023-07-19T02:04:03.371Z,2.70
2023-07-19T02:06:31.981Z,3.00
2023-07-19T02:09:00.891Z,2.78
2023-07-19T02:11:29.563Z,2.70
2023-07-19T02:13:58.139Z,3.40
2023-07-19T02:16:28.259Z,2.70
2023-07-19T02:18:57.642Z,2.85
2023-07-19T02:21:27.457Z,2.90
2023-07-19T02:23:56.800Z,2.88
2023-07-19T02:26:25.402Z,3.10
2023-07-19T02:28:55.665Z,3.17
2023-07-19T02:31:24.559Z,3.05
2023-07-19T02:33:54.882Z,3.38
2023-07-19T02:36:23.573Z,3.20
2023-07-19T02:38:52.081Z,3.05
2023-07-19T02:41:21.038Z,2.67
2023-07-19T02:43:49.755Z,3.28
2023-07-19T02:46:18.411Z,3.08
2023-07-19T02:48:46.992Z,3.83
2023-07-19T02:51:17.027Z,3.42
2023-07-19T02:53:45.605Z,3.08
2023-07-19T02:56:14.165Z,3.10
2023-07-19T02:58:43.291Z,2.80
2023-07-19T03:01:15.369Z,2.78
2023-07-19T03:03:44.116Z,3.17
2023-07-19T03:06:14.447Z,2.88
2023-07-19T03:08:45.227Z,3.00
2023-07-19T03:11:13.931Z,3.20
2023-07-19T03:13:42.771Z,2.95
2023-07-19T03:16:11.394Z,3.33
2023-07-19T03:18:39.996Z,3.00
2023-07-19T03:21:08.566Z,3.20
2023-07-19T03:23:38.110Z,2.78
2023-07-19T03:26:08.361Z,2.95
2023-07-19T03:28:37.137Z,2.90
2023-07-19T03:31:05.769Z,3.28
2023-07-19T03:33:34.350Z,2.80
2023-07-19T03:36:02.977Z,3.45
2023-07-19T03:43:20.112Z,3.28
2023-07-19T03:45:49.309Z,3.10
2023-07-19T03:48:17.998Z,3.55
2023-07-19T03:50:46.515Z,2.83
2023-07-19T03:53:15.101Z,3.03
2023-07-19T03:55:43.665Z,3.30
2023-07-19T03:58:13.196Z,3.25
2023-07-19T04:00:43.121Z,3.00
2023-07-19T04:03:11.704Z,3.08
2023-07-19T04:05:41.770Z,3.22
2023-07-19T04:08:11.761Z,3.10
2023-07-19T04:10:40.380Z,3.05
2023-07-19T04:13:09.322Z,2.35
2023-07-19T04:15:38.134Z,3.33
2023-07-19T04:18:09.434Z,3.33
2023-07-19T04:20:38.746Z,2.95
2023-07-19T04:23:10.310Z,3.40
2023-07-19T04:25:39.625Z,3.20
2023-07-19T04:28:08.500Z,2.90
2023-07-19T04:30:37.107Z,3.35
2023-07-19T04:33:05.961Z,3.22
2023-07-19T04:35:36.047Z,3.03
2023-07-19T04:38:06.423Z,2.90
2023-07-19T04:40:35.002Z,3.13
2023-07-19T04:43:04.708Z,3.65
2023-07-19T04:45:33.482Z,3.47
2023-07-19T04:48:02.241Z,3.10
2023-07-19T04:50:31.280Z,3.08
2023-07-19T04:53:02.017Z,3.17
2023-07-19T04:55:31.822Z,3.60
2023-07-19T04:58:00.520Z,3.03
2023-07-19T05:00:29.088Z,3.22
2023-07-19T05:02:57.814Z,2.53
2023-07-19T05:05:26.978Z,3.17
2023-07-19T05:07:55.582Z,3.00
2023-07-19T05:10:26.049Z,2.88
2023-07-19T05:12:54.941Z,3.03
2023-07-19T05:15:23.574Z,3.13
2023-07-19T05:17:52.642Z,3.40
2023-07-19T05:20:24.264Z,3.42
2023-07-19T05:22:52.913Z,3.58
2023-07-19T05:25:21.531Z,3.35
2023-07-19T05:27:51.381Z,3.20
2023-07-19T05:30:20.131Z,3.20
2023-07-19T05:32:48.756Z,2.80
2023-07-19T05:35:17.456Z,3.05
2023-07-19T05:37:46.151Z,2.90
2023-07-19T05:40:15.118Z,3.00
2023-07-19T05:42:43.666Z,2.88
2023-07-19T05:45:13.697Z,3.28
2023-07-19T05:47:42.340Z,3.33
2023-07-19T05:50:11.431Z,3.25
2023-07-19T05:52:40.763Z,3.40
2023-07-19T05:55:10.086Z,3.60
2023-07-19T05:57:38.684Z,3.50
2023-07-19T06:00:20.716Z,3.30
2023-07-19T06:02:55.421Z,3.58
2023-07-19T06:05:26.106Z,3.33
2023-07-19T06:07:56.531Z,3.47
2023-07-19T06:10:26.513Z,3.28
2023-07-19T06:12:55.808Z,3.72
2023-07-19T06:15:24.489Z,3.35
2023-07-19T06:17:54.415Z,3.90
2023-07-19T06:20:23.022Z,3.38
2023-07-19T06:22:51.545Z,3.90
2023-07-19T06:25:20.289Z,3.55
2023-07-19T06:27:48.945Z,3.50
2023-07-19T06:30:17.506Z,3.33
2023-07-19T06:32:46.178Z,2.95
2023-07-19T06:35:16.145Z,3.22
2023-07-19T06:37:44.785Z,3.47
2023-07-19T06:40:13.828Z,2.95
2023-07-19T06:42:43.946Z,3.53
2023-07-19T06:45:12.796Z,3.30
2023-07-19T06:47:41.456Z,2.70
2023-07-19T06:50:10.720Z,3.13
2023-07-19T06:52:40.884Z,3.50
2023-07-19T06:55:10.453Z,3.08
2023-07-19T06:57:39.012Z,3.28
2023-07-19T07:00:09.364Z,3.53
2023-07-19T07:02:38.372Z,3.95
2023-07-19T07:05:07.793Z,3.50
2023-07-19T07:07:36.380Z,3.47
2023-07-19T07:10:09.914Z,3.40
2023-07-19T07:12:38.771Z,3.08
2023-07-19T07:15:08.518Z,2.65
2023-07-19T07:17:38.986Z,3.22
2023-07-19T07:20:08.776Z,3.80
2023-07-19T07:22:37.414Z,2.80
2023-07-19T07:25:07.786Z,2.80
2023-07-19T07:27:36.533Z,2.80
2023-07-19T07:30:05.868Z,2.70
2023-07-19T07:32:36.201Z,2.90
2023-07-19T07:35:07.727Z,2.33
2023-07-19T07:37:36.636Z,3.22
2023-07-19T07:40:09.465Z,2.97
2023-07-19T07:42:38.039Z,3.15
2023-07-19T07:45:09.309Z,3.75
2023-07-19T07:47:38.100Z,3.13
2023-07-19T07:50:11.650Z,3.53
2023-07-19T07:52:40.901Z,3.33
2023-07-19T07:55:11.062Z,3.38
2023-07-19T07:57:39.962Z,2.85
2023-07-19T08:00:11.942Z,3.45
2023-07-19T08:02:40.522Z,2.70
2023-07-19T08:05:10.442Z,3.30
2023-07-19T08:07:39.097Z,2.83
2023-07-19T08:10:08.336Z,2.63
2023-07-19T08:12:38.251Z,2.97
2023-07-19T08:15:08.677Z,2.78
2023-07-19T08:17:38.296Z,2.88
2023-07-19T08:20:10.821Z,2.78
2023-07-19T08:22:39.758Z,2.80
2023-07-19T08:25:24.447Z,2.70
2023-07-19T08:27:57.138Z,3.17
2023-07-19T08:30:25.998Z,3.00
2023-07-19T08:32:54.847Z,2.88
2023-07-19T08:35:23.467Z,3.30
2023-07-19T08:37:52.063Z,2.60
2023-07-19T08:40:20.713Z,2.78
2023-07-19T08:42:52.093Z,2.80
2023-07-19T08:45:24.654Z,3.00
2023-07-19T08:47:54.844Z,3.17
2023-07-19T08:50:25.161Z,3.10
2023-07-19T08:52:54.233Z,2.60
2023-07-19T08:55:23.332Z,2.83
2023-07-19T08:57:52.015Z,2.53
2023-07-19T09:00:22.154Z,2.67
2023-07-19T09:02:50.735Z,3.20
2023-07-19T09:05:19.340Z,2.90
2023-07-19T09:07:49.982Z,3.30
2023-07-19T09:10:19.643Z,3.03
2023-07-19T09:12:48.458Z,2.80
2023-07-19T09:15:17.094Z,2.97
2023-07-19T09:17:48.514Z,2.85
2023-07-19T09:20:19.115Z,3.10
2023-07-19T09:22:47.894Z,3.60
2023-07-19T09:25:16.654Z,2.92
2023-07-19T09:27:45.300Z,3.33
2023-07-19T09:30:14.981Z,3.17
2023-07-19T09:32:43.835Z,2.85
2023-07-19T09:35:13.807Z,2.80
2023-07-19T09:37:42.953Z,2.88
2023-07-19T09:40:14.449Z,2.80
2023-07-19T09:42:44.447Z,2.65
2023-07-19T09:45:13.755Z,2.38
2023-07-19T09:47:43.547Z,2.70
2023-07-19T09:50:14.695Z,2.78
2023-07-19T09:52:44.629Z,2.83
2023-07-19T09:55:14.217Z,2.33
2023-07-19T09:57:48.058Z,2.22
2023-07-19T10:00:19.422Z,2.55
2023-07-19T10:02:48.111Z,2.70
2023-07-19T10:05:18.133Z,2.15
2023-07-19T10:07:52.273Z,2.60
2023-07-19T10:10:22.076Z,2.58
2023-07-19T10:12:51.523Z,2.60
2023-07-19T10:15:23.316Z,2.20
2023-07-19T10:17:57.037Z,2.15
2023-07-19T10:20:31.452Z,2.38
2023-07-19T10:23:01.835Z,2.67
2023-07-19T10:25:33.058Z,2.47
2023-07-19T10:28:04.513Z,2.65
2023-07-19T10:31:02.230Z,2.97
2023-07-19T10:33:36.028Z,2.47
2023-07-19T10:36:11.158Z,3.65
2023-07-19T10:38:39.761Z,3.22
2023-07-19T10:41:10.364Z,2.70
2023-07-19T10:46:11.522Z,3.25
2023-07-19T10:48:42.207Z,3.53
2023-07-19T10:51:12.833Z,3.50
2023-07-19T10:53:45.921Z,3.40
2023-07-19T10:56:15.688Z,3.33
2023-07-19T10:58:44.611Z,3.25
2023-07-19T11:01:13.941Z,3.22
2023-07-19T11:03:47.647Z,3.28
2023-07-19T11:06:17.783Z,3.05
2023-07-19T11:08:46.807Z,3.40
2023-07-19T11:11:16.392Z,3.47
2023-07-19T11:13:47.225Z,2.90
2023-07-19T11:16:16.087Z,3.30
2023-07-19T11:18:44.678Z,3.05
2023-07-19T11:21:13.310Z,3.95
2023-07-19T11:23:45.963Z,3.17
2023-07-19T11:26:19.045Z,3.00
2023-07-19T11:28:51.507Z,3.85
2023-07-19T11:31:31.136Z,3.83
2023-07-19T11:34:06.012Z,3.90
2023-07-19T11:36:35.127Z,3.50
2023-07-19T11:39:05.236Z,3.42
2023-07-19T11:41:34.572Z,3.28
2023-07-19T11:44:04.129Z,3.20
2023-07-19T11:46:32.785Z,3.10
2023-07-19T11:49:01.578Z,3.60
2023-07-19T11:51:30.175Z,3.50
2023-07-19T11:53:59.196Z,3.83
2023-07-19T11:56:29.832Z,3.75
2023-07-19T11:58:58.936Z,3.10
2023-07-19T12:01:28.208Z,3.05
2023-07-19T12:04:01.019Z,2.50
2023-07-19T12:06:30.425Z,3.03
2023-07-19T12:08:59.036Z,2.53
2023-07-19T12:11:29.009Z,2.60
2023-07-19T12:14:00.473Z,2.10
2023-07-19T12:16:29.199Z,2.70
2023-07-19T12:18:57.816Z,2.95
2023-07-19T12:21:26.451Z,2.58
2023-07-19T12:23:58.888Z,2.50
2023-07-19T12:29:01.237Z,2.25
2023-07-19T12:31:30.299Z,2.78
2023-07-19T12:33:59.033Z,2.97
2023-07-19T12:36:28.089Z,2.63
2023-07-19T12:38:57.619Z,3.03
2023-07-19T12:41:26.949Z,2.50
2023-07-19T12:43:58.585Z,2.60
2023-07-19T12:46:27.276Z,2.70
2023-07-19T12:48:55.883Z,2.60
2023-07-19T12:51:24.492Z,3.10
2023-07-19T12:53:53.117Z,3.78
2023-07-19T12:56:21.998Z,2.55
2023-07-19T12:58:51.009Z,2.58
2023-07-19T13:01:21.285Z,2.30
2023-07-19T13:03:50.136Z,2.30
2023-07-19T13:06:18.946Z,1.98
2023-07-19T13:08:47.850Z,2.25
2023-07-19T13:11:17.900Z,2.17
2023-07-19T13:13:46.662Z,2.22
2023-07-19T13:16:15.349Z,1.90
2023-07-19T13:18:45.805Z,1.88
2023-07-19T13:21:14.704Z,1.77
2023-07-19T13:23:43.994Z,1.95
2023-07-19T13:26:13.325Z,2.08
2023-07-19T13:28:42.386Z,1.88
2023-07-19T13:31:11.053Z,1.60
2023-07-19T13:33:39.627Z,1.90
2023-07-19T13:38:42.423Z,1.80
2023-07-19T13:41:11.440Z,1.73
2023-07-19T13:43:40.060Z,1.70
2023-07-19T13:46:08.675Z,1.73
2023-07-19T13:48:37.307Z,1.65
2023-07-19T13:51:06.018Z,1.60
2023-07-19T13:53:36.032Z,1.80
2023-07-19T13:56:04.663Z,1.40
2023-07-19T13:58:33.231Z,1.80
2023-07-19T14:01:02.056Z,1.77
2023-07-19T14:03:30.822Z,1.40
2023-07-19T14:05:59.548Z,1.38
2023-07-19T14:08:28.113Z,1.48
2023-07-19T14:10:58.275Z,1.70
2023-07-19T14:13:32.538Z,1.50
2023-07-19T14:16:05.320Z,1.50
2023-07-19T14:18:35.709Z,1.55
2023-07-19T14:23:36.266Z,1.60
2023-07-19T14:26:06.318Z,1.30
2023-07-19T14:28:34.890Z,1.13
2023-07-19T14:31:03.744Z,1.63
2023-07-19T14:33:32.458Z,1.33
2023-07-19T14:36:01.895Z,1.40
2023-07-19T14:38:31.060Z,1.30
2023-07-19T14:40:59.828Z,1.38
2023-07-19T14:43:29.822Z,1.33
2023-07-19T14:45:59.542Z,1.38
2023-07-19T14:48:29.021Z,1.40
2023-07-19T14:50:57.672Z,1.80
2023-07-19T14:53:26.385Z,1.30
2023-07-19T14:55:56.346Z,1.10
2023-07-19T14:58:25.288Z,1.48
2023-07-19T15:00:57.173Z,1.33
2023-07-19T15:03:29.090Z,1.10
2023-07-19T15:05:58.360Z,1.08
2023-07-19T15:08:27.081Z,1.20
2023-07-19T15:10:56.990Z,1.27
2023-07-19T15:13:25.809Z,1.23
2023-07-19T15:15:59.226Z,1.10
2023-07-19T15:18:28.886Z,1.10
2023-07-19T15:20:58.472Z,0.98
2023-07-19T15:23:27.244Z,1.20
2023-07-19T15:25:56.337Z,0.80
2023-07-19T15:28:30.140Z,1.08
2023-07-19T15:31:01.329Z,0.88
2023-07-19T15:33:30.630Z,1.20
2023-07-19T15:36:00.376Z,0.95
2023-07-19T15:38:40.216Z,1.13
2023-07-19T15:41:08.999Z,0.95
2023-07-19T15:43:38.020Z,1.20
2023-07-19T15:46:08.040Z,1.02
2023-07-19T15:48:37.377Z,1.17
2023-07-19T15:51:06.807Z,0.95
2023-07-19T15:53:37.360Z,1.30
2023-07-19T15:56:07.475Z,0.80
2023-07-19T15:58:37.157Z,0.90
2023-07-19T16:01:08.053Z,0.90
2023-07-19T16:03:37.629Z,1.20
2023-07-19T16:06:08.346Z,1.10
2023-07-19T16:08:38.989Z,1.13
2023-07-19T16:11:07.787Z,1.60
2023-07-19T16:13:36.583Z,1.00
2023-07-19T16:16:06.237Z,1.23
2023-07-19T16:18:36.296Z,0.95
2023-07-19T16:21:05.466Z,1.02
2023-07-19T16:23:34.137Z,1.00
2023-07-19T16:26:02.796Z,0.90
2023-07-19T16:28:31.367Z,1.00
2023-07-19T16:31:00.218Z,0.80
2023-07-19T16:33:28.828Z,1.17
2023-07-19T16:35:58.838Z,1.10
2023-07-19T16:38:27.398Z,1.05
2023-07-19T16:40:56.074Z,1.30
2023-07-19T16:43:25.951Z,1.13
2023-07-19T16:45:54.953Z,1.42
2023-07-19T16:48:23.810Z,1.38
2023-07-19T16:50:52.478Z,1.00
2023-07-19T16:53:22.731Z,1.10
2023-07-19T16:55:51.840Z,0.98
2023-07-19T16:58:20.619Z,1.25
2023-07-19T17:00:49.720Z,1.00
2023-07-19T17:03:19.250Z,1.10
2023-07-19T17:05:47.786Z,0.98
2023-07-19T17:08:16.553Z,0.93
2023-07-19T17:10:46.532Z,1.40
2023-07-19T17:13:15.368Z,1.33
2023-07-19T17:15:44.658Z,1.25
2023-07-19T17:18:13.463Z,1.33
2023-07-19T17:20:42.237Z,1.40
2023-07-19T17:23:11.365Z,1.33
2023-07-19T17:25:40.042Z,1.30
2023-07-19T17:28:09.982Z,1.38
2023-07-19T17:30:41.378Z,1.30
2023-07-19T17:33:10.255Z,1.55
2023-07-19T17:35:38.814Z,1.40
2023-07-19T17:38:07.668Z,1.50
2023-07-19T17:40:36.548Z,1.83
2023-07-19T17:43:05.245Z,1.67
2023-07-19T17:45:35.469Z,1.23
2023-07-19T17:48:04.200Z,1.52
2023-07-19T17:50:32.790Z,1.38
2023-07-19T17:53:02.265Z,1.40
2023-07-19T17:55:30.809Z,1.60
2023-07-19T17:57:59.740Z,1.60
2023-07-19T18:00:28.399Z,1.88
2023-07-19T18:02:58.526Z,1.52
2023-07-19T18:05:27.374Z,1.73
2023-07-19T18:08:01.870Z,1.42
2023-07-19T18:10:42.027Z,1.88
2023-07-19T18:13:10.685Z,1.83
2023-07-19T18:15:40.283Z,2.17
2023-07-19T18:18:10.231Z,1.67
2023-07-19T18:20:38.954Z,1.83
2023-07-19T18:23:07.709Z,2.10
2023-07-19T18:25:36.370Z,1.88
2023-07-19T18:28:08.164Z,2.00
2023-07-19T18:30:37.309Z,1.77
2023-07-19T18:33:05.962Z,2.00
2023-07-19T18:35:35.989Z,1.77
2023-07-19T18:38:04.523Z,1.80
2023-07-19T18:40:33.093Z,1.88
2023-07-19T18:43:01.719Z,1.75
2023-07-19T18:45:30.258Z,1.67
2023-07-19T18:47:58.846Z,1.80
2023-07-19T18:50:27.430Z,1.73
2023-07-19T18:52:57.350Z,2.30
2023-07-19T18:55:26.098Z,2.20
2023-07-19T18:57:54.659Z,2.40
2023-07-19T19:00:23.267Z,1.70
2023-07-19T19:02:51.964Z,1.67
2023-07-19T19:05:20.602Z,2.08
2023-07-19T19:07:51.576Z,1.80
2023-07-19T19:10:21.702Z,1.85
2023-07-19T19:12:50.312Z,1.67
2023-07-19T19:15:19.046Z,1.48
2023-07-19T19:17:47.710Z,1.92
2023-07-19T19:20:16.361Z,1.58
2023-07-19T19:22:44.968Z,1.58
2023-07-19T19:25:15.404Z,1.42
2023-07-19T19:27:45.386Z,1.77
2023-07-19T19:30:14.210Z,1.73
2023-07-19T19:32:43.130Z,1.50
2023-07-19T19:35:11.800Z,1.75
2023-07-19T19:37:40.360Z,1.55
2023-07-19T19:40:10.473Z,1.52
2023-07-19T19:42:40.062Z,2.13
2023-07-19T19:45:12.503Z,1.73
2023-07-19T19:47:43.539Z,1.60
2023-07-19T19:50:12.488Z,1.58
2023-07-19T19:52:43.306Z,1.65
2023-07-19T19:55:17.734Z,1.80
2023-07-19T19:57:46.345Z,1.77
2023-07-19T20:00:17.514Z,1.77
2023-07-19T20:02:46.115Z,1.88
2023-07-19T20:05:55.990Z,2.28
2023-07-19T20:08:03.434Z,1.90
2023-07-19T20:10:33.929Z,1.70
2023-07-19T20:13:02.552Z,1.95
2023-07-19T20:15:47.467Z,2.28
2023-07-19T20:20:48.069Z,1.90
2023-07-19T20:23:16.966Z,2.08
2023-07-19T20:26:11.115Z,2.00
2023-07-19T20:28:35.101Z,2.10
2023-07-19T20:31:06.568Z,2.22
2023-07-19T20:33:35.720Z,1.60
2023-07-19T20:36:05.909Z,2.00
2023-07-19T20:43:38.376Z,1.75
2023-07-19T20:46:09.019Z,2.20
2023-07-19T20:48:39.149Z,2.30
2023-07-19T20:51:11.951Z,1.88
2023-07-19T20:53:40.808Z,2.10
2023-07-19T20:56:09.398Z,2.70
2023-07-19T20:58:38.029Z,2.30
2023-07-19T21:01:08.022Z,2.40
2023-07-19T21:03:38.775Z,2.15
2023-07-19T21:06:07.669Z,2.55
2023-07-19T21:08:36.251Z,2.47
2023-07-19T21:11:05.088Z,2.33
2023-07-19T21:13:33.916Z,2.22
2023-07-19T21:16:02.549Z,2.28
2023-07-19T21:18:32.639Z,2.53
2023-07-19T21:21:02.091Z,2.28
2023-07-19T21:23:30.906Z,2.05
2023-07-19T21:25:59.489Z,2.83
2023-07-19T21:28:28.052Z,2.30
2023-07-19T21:30:57.062Z,2.00
2023-07-19T21:33:26.010Z,2.10
2023-07-19T21:35:55.907Z,2.50
2023-07-19T21:38:24.725Z,2.10
2023-07-19T21:40:53.632Z,2.65
2023-07-19T21:43:22.481Z,2.38
2023-07-19T21:45:51.634Z,2.20
2023-07-19T21:48:20.756Z,2.33
2023-07-19T21:50:49.565Z,2.60
2023-07-19T21:53:19.651Z,2.10
2023-07-19T21:55:48.224Z,2.20
2023-07-19T21:58:16.881Z,2.45
2023-07-19T22:00:46.600Z,2.17
2023-07-19T22:03:16.237Z,2.38
2023-07-19T22:05:45.164Z,2.47
2023-07-19T22:08:13.768Z,2.50
2023-07-19T22:10:43.921Z,2.58
2023-07-19T22:13:12.742Z,2.60
2023-07-19T22:15:41.383Z,2.65
2023-07-19T22:18:18.035Z,2.10
2023-07-19T22:20:48.749Z,2.58
2023-07-19T22:23:18.001Z,2.42
2023-07-19T22:25:49.362Z,2.40
2023-07-19T22:28:18.998Z,2.10
2023-07-19T22:30:48.421Z,2.50
2023-07-19T22:33:17.099Z,2.35
2023-07-19T22:35:45.821Z,2.70
2023-07-19T22:38:14.422Z,2.72
2023-07-19T22:40:43.207Z,2.67
2023-07-19T22:43:13.308Z,2.42
2023-07-19T22:45:43.779Z,2.88
2023-07-19T22:48:12.328Z,2.47
2023-07-19T22:50:40.942Z,2.30
2023-07-19T22:53:09.562Z,2.63
2023-07-19T22:55:40.957Z,2.35
2023-07-19T22:58:09.631Z,2.85
2023-07-19T23:00:39.741Z,2.60
2023-07-19T23:03:08.415Z,2.83
2023-07-19T23:05:37.267Z,2.60
2023-07-19T23:08:06.559Z,2.80
2023-07-19T23:10:35.160Z,2.67
2023-07-19T23:13:04.206Z,2.80
2023-07-19T23:15:32.820Z,2.90
2023-07-19T23:18:02.785Z,2.60
2023-07-19T23:20:33.059Z,3.22
2023-07-19T23:23:03.606Z,2.60
2023-07-19T23:25:32.269Z,2.80
2023-07-19T23:28:02.062Z,3.15
2023-07-19T23:30:33.914Z,3.33
2023-07-19T23:33:03.933Z,2.83
2023-07-19T23:35:33.593Z,2.47
2023-07-19T23:38:02.317Z,2.70
2023-07-19T23:40:30.966Z,2.85
2023-07-19T23:42:59.697Z,3.05
2023-07-19T23:45:29.390Z,3.00
2023-07-19T23:47:58.951Z,2.35
2023-07-19T23:50:28.979Z,2.90
2023-07-19T23:52:57.539Z,3.42
2023-07-19T23:55:26.097Z,3.33
2023-07-19T23:57:54.619Z,3.10
